Time;durP1;ratioP1;P1;durP2;ratioP2;P2;SDS_P1;SDS_P2;PMS_P1;PMS_P2;Temp;Humidity;BMP_temperature;BMP_pressure;BME280_temperature;BME280_humidity;BME280_pressure;Samples;Min_cycle;Max_cycle;Signal;HPM_P1;HPM_P2
2023/05/22 00:00:16;;;;;;;18.50;17.30;;;18.40;38.10;;;;;;5069149;28;20167;-75
2023/05/22 00:02:42;;;;;;;20.47;18.97;;;18.40;38.00;;;;;;5069734;28;20958;-73
2023/05/22 00:05:12;;;;;;;18.97;17.47;;;18.50;38.00;;;;;;5052195;28;20434;-74
2023/05/22 00:07:39;;;;;;;17.57;16.37;;;18.50;38.00;;;;;;5070341;28;20445;-75
2023/05/22 00:10:05;;;;;;;16.97;15.37;;;18.40;38.10;;;;;;5068899;28;20456;-72
2023/05/22 00:12:31;;;;;;;19.60;18.40;;;18.40;38.20;;;;;;5067937;28;20903;-75
2023/05/22 00:14:56;;;;;;;20.70;18.93;;;18.40;38.50;;;;;;5069769;28;20464;-72
2023/05/22 00:17:23;;;;;;;16.73;15.53;;;18.40;38.40;;;;;;5068860;28;20179;-75
2023/05/22 00:19:50;;;;;;;16.63;15.33;;;18.40;38.50;;;;;;5069465;28;20175;-74
2023/05/22 00:22:15;;;;;;;20.60;19.20;;;18.30;38.30;;;;;;5050570;28;20452;-75
2023/05/22 00:24:41;;;;;;;19.57;18.27;;;18.30;38.80;;;;;;5069454;28;20469;-74
2023/05/22 00:27:07;;;;;;;20.33;18.97;;;18.30;38.80;;;;;;5068227;28;20187;-75
2023/05/22 00:29:32;;;;;;;19.00;17.70;;;18.30;38.70;;;;;;5052692;28;20185;-75
2023/05/22 00:31:58;;;;;;;21.03;19.40;;;18.30;38.80;;;;;;5069006;28;20649;-75
2023/05/22 00:34:23;;;;;;;19.50;18.30;;;18.30;38.80;;;;;;5070081;28;20198;-75
2023/05/22 00:36:49;;;;;;;21.20;19.80;;;18.30;38.80;;;;;;5069511;28;20179;-75
2023/05/22 00:39:14;;;;;;;17.27;15.87;;;18.20;38.70;;;;;;5051644;28;20175;-75
2023/05/22 00:41:40;;;;;;;20.60;19.20;;;18.20;38.70;;;;;;5048864;28;20312;-75
2023/05/22 00:44:06;;;;;;;21.97;20.57;;;18.20;38.70;;;;;;5054083;28;20290;-74
2023/05/22 00:46:32;;;;;;;20.43;18.90;;;18.20;38.70;;;;;;5067463;28;20658;-75
2023/05/22 00:48:58;;;;;;;20.23;18.97;;;18.30;38.80;;;;;;5068666;28;20409;-74
2023/05/22 00:51:24;;;;;;;20.67;19.37;;;18.20;38.70;;;;;;5067943;28;20179;-75
2023/05/22 00:53:50;;;;;;;20.67;19.37;;;18.20;38.70;;;;;;5069221;28;20586;-75
2023/05/22 00:56:16;;;;;;;21.07;19.47;;;18.20;38.70;;;;;;5068109;28;20941;-75
2023/05/22 00:58:42;;;;;;;20.67;19.37;;;18.20;38.70;;;;;;5067666;28;20459;-74
2023/05/22 01:01:10;;;;;;;21.27;19.87;;;18.20;38.70;;;;;;5068917;28;20425;-74
2023/05/22 01:03:41;;;;;;;19.57;18.47;;;18.20;38.70;;;;;;5056254;28;20271;-74
2023/05/22 01:06:06;;;;;;;20.40;19.20;;;18.20;38.70;;;;;;5052789;28;20482;-74
2023/05/22 01:08:32;;;;;;;21.40;19.90;;;18.20;38.70;;;;;;5072624;28;20777;-74
2023/05/22 01:11:16;;;;;;;21.23;19.93;;;18.20;38.80;;;;;;5055051;28;20661;-74
2023/05/22 01:14:22;;;;;;;23.27;21.67;;;18.20;39.10;;;;;;5071792;28;20245;-74
2023/05/22 01:16:58;;;;;;;21.63;20.30;;;18.10;38.90;;;;;;5054715;28;20508;-74
2023/05/22 01:19:46;;;;;;;22.00;20.60;;;18.10;39.20;;;;;;5069845;28;20493;-75
2023/05/22 01:22:20;;;;;;;22.60;21.00;;;18.00;39.30;;;;;;5053947;28;20479;-75
2023/05/22 01:25:07;;;;;;;21.90;20.40;;;18.00;39.40;;;;;;5070906;28;20445;-73
2023/05/22 01:27:57;;;;;;;20.70;19.40;;;18.00;39.50;;;;;;5072980;28;20413;-74
2023/05/22 01:30:41;;;;;;;22.10;20.70;;;18.00;39.50;;;;;;5070474;28;20766;-73
2023/05/22 01:33:08;;;;;;;22.00;20.57;;;18.00;39.70;;;;;;5071643;28;20452;-74
2023/05/22 01:35:36;;;;;;;20.87;19.60;;;18.00;39.70;;;;;;5054929;28;20452;-75
2023/05/22 01:38:02;;;;;;;22.13;20.83;;;18.00;39.60;;;;;;5073332;28;20543;-75
2023/05/22 01:40:28;;;;;;;22.13;20.73;;;17.90;39.40;;;;;;5072553;28;20449;-74
2023/05/22 01:42:54;;;;;;;22.20;20.60;;;17.90;39.50;;;;;;5054887;28;20190;-74
2023/05/22 01:45:20;;;;;;;22.57;21.27;;;17.90;39.80;;;;;;5055573;28;20544;-74
2023/05/22 01:47:45;;;;;;;21.33;20.10;;;17.90;40.00;;;;;;5072707;28;20505;-74
2023/05/22 01:50:12;;;;;;;22.37;20.83;;;17.90;40.50;;;;;;5053693;28;20183;-75
2023/05/22 01:53:07;;;;;;;22.13;20.83;;;17.90;40.20;;;;;;5071655;28;20252;-72
2023/05/22 01:55:44;;;;;;;21.73;20.33;;;17.80;40.20;;;;;;5051766;28;20853;-74
2023/05/22 01:58:48;;;;;;;21.50;20.30;;;17.80;40.20;;;;;;5071480;28;20463;-75
2023/05/22 02:01:16;;;;;;;21.93;20.63;;;17.80;40.10;;;;;;5043572;28;20429;-73
2023/05/22 02:03:41;;;;;;;22.57;21.27;;;17.80;40.20;;;;;;5072943;28;20429;-73
2023/05/22 02:06:11;;;;;;;23.40;21.80;;;17.80;40.00;;;;;;5066500;28;20429;-74
2023/05/22 02:08:39;;;;;;;22.70;21.40;;;17.80;40.00;;;;;;5052795;28;20410;-74
2023/05/22 02:11:06;;;;;;;21.90;20.50;;;17.80;40.20;;;;;;5052795;28;20442;-74
2023/05/22 02:13:32;;;;;;;23.20;21.70;;;17.80;40.10;;;;;;5050632;28;20493;-74
2023/05/22 02:15:59;;;;;;;21.80;20.50;;;17.80;40.20;;;;;;5051190;28;20909;-74
2023/05/22 02:18:28;;;;;;;21.90;20.50;;;17.70;40.30;;;;;;5051308;28;20410;-71
2023/05/22 02:20:55;;;;;;;23.00;21.40;;;17.70;40.50;;;;;;5051945;28;20421;-74
2023/05/22 02:23:21;;;;;;;22.40;20.90;;;17.70;40.60;;;;;;5049648;28;20411;-74
2023/05/22 02:25:46;;;;;;;22.10;20.50;;;17.70;40.40;;;;;;5053115;28;20454;-75
2023/05/22 02:28:12;;;;;;;22.50;21.10;;;17.70;40.50;;;;;;5050830;28;20641;-75
2023/05/22 02:30:37;;;;;;;22.30;20.93;;;17.70;40.70;;;;;;5050116;28;20194;-75
2023/05/22 02:33:04;;;;;;;22.20;20.80;;;17.60;40.70;;;;;;5050869;28;20290;-75
2023/05/22 02:35:30;;;;;;;22.20;20.90;;;17.60;40.70;;;;;;5051061;28;20252;-75
2023/05/22 02:37:56;;;;;;;23.23;21.83;;;17.70;40.70;;;;;;5050689;28;20419;-75
2023/05/22 02:40:21;;;;;;;21.50;20.30;;;17.70;40.60;;;;;;5050911;28;20916;-74
2023/05/22 02:42:47;;;;;;;24.10;22.50;;;17.70;40.70;;;;;;5049050;28;20180;-74
2023/05/22 02:45:12;;;;;;;23.70;22.10;;;17.70;40.70;;;;;;5051305;28;20192;-75
2023/05/22 02:47:38;;;;;;;22.83;21.53;;;17.60;40.40;;;;;;5048757;28;20267;-74
2023/05/22 02:50:04;;;;;;;24.27;22.70;;;17.50;41.00;;;;;;5051712;28;20180;-74
2023/05/22 02:52:30;;;;;;;22.57;21.10;;;17.40;41.70;;;;;;5051257;28;20207;-74
2023/05/22 02:54:55;;;;;;;22.47;21.13;;;17.30;42.30;;;;;;5030932;28;20442;-74
2023/05/22 02:57:21;;;;;;;23.13;21.80;;;17.30;42.70;;;;;;5048561;28;20410;-75
2023/05/22 02:59:46;;;;;;;23.37;21.70;;;17.30;42.40;;;;;;5051891;28;20168;-73
2023/05/22 03:02:13;;;;;;;23.83;22.23;;;17.40;42.20;;;;;;5030427;28;20211;-71
2023/05/22 03:04:39;;;;;;;23.03;21.63;;;17.40;42.00;;;;;;5048059;28;20211;-74
2023/05/22 03:07:06;;;;;;;24.23;22.73;;;17.40;41.70;;;;;;5048804;28;20916;-74
2023/05/22 03:09:31;;;;;;;24.93;23.13;;;17.50;41.60;;;;;;5049774;28;20172;-75
2023/05/22 03:11:57;;;;;;;24.50;22.90;;;17.50;41.60;;;;;;5052160;28;20469;-74
2023/05/22 03:14:22;;;;;;;24.10;22.60;;;17.50;41.40;;;;;;5047909;28;20203;-71
2023/05/22 03:16:48;;;;;;;24.50;23.00;;;17.50;41.60;;;;;;5030993;28;20198;-74
2023/05/22 03:19:15;;;;;;;25.07;23.57;;;17.50;41.70;;;;;;5049708;28;20965;-74
2023/05/22 03:21:43;;;;;;;23.87;22.37;;;17.50;41.60;;;;;;5028483;28;20203;-74
2023/05/22 03:24:08;;;;;;;24.60;23.10;;;17.50;41.60;;;;;;5049855;28;20442;-74
2023/05/22 03:26:34;;;;;;;25.20;23.50;;;17.50;41.40;;;;;;5049725;28;20410;-74
2023/05/22 03:29:00;;;;;;;23.77;22.47;;;17.50;41.50;;;;;;5050300;28;20218;-74
2023/05/22 03:31:27;;;;;;;25.67;23.97;;;17.50;41.50;;;;;;5048419;28;20186;-73
2023/05/22 03:33:53;;;;;;;23.97;22.47;;;17.60;41.50;;;;;;5050973;28;20204;-73
2023/05/22 03:36:24;;;;;;;24.10;22.60;;;17.60;41.40;;;;;;5030277;28;20422;-74
2023/05/22 03:38:49;;;;;;;24.53;23.10;;;17.60;41.20;;;;;;5031703;28;20244;-74
2023/05/22 03:41:15;;;;;;;24.43;22.73;;;17.60;41.40;;;;;;5031837;28;20514;-73
2023/05/22 03:43:41;;;;;;;23.47;21.97;;;17.60;41.30;;;;;;5069285;28;20410;-73
2023/05/22 03:46:06;;;;;;;23.43;22.13;;;17.60;41.30;;;;;;5045809;28;20234;-73
2023/05/22 03:48:33;;;;;;;24.40;22.10;;;17.60;41.30;;;;;;5053139;28;20236;-74
2023/05/22 03:50:58;;;;;;;22.53;21.03;;;17.60;41.10;;;;;;5068835;28;20175;-75
2023/05/22 03:53:24;;;;;;;22.97;21.53;;;17.60;41.00;;;;;;5067931;28;20507;-73
2023/05/22 03:55:49;;;;;;;23.83;22.47;;;17.50;40.80;;;;;;5049380;28;20681;-75
2023/05/22 03:58:15;;;;;;;23.97;22.40;;;17.60;40.70;;;;;;5052526;28;20159;-75
2023/05/22 04:00:41;;;;;;;24.00;22.50;;;17.60;40.60;;;;;;5068576;28;20569;-74
2023/05/22 04:03:11;;;;;;;25.90;24.17;;;17.60;40.70;;;;;;5069116;28;20186;-74
2023/05/22 04:05:40;;;;;;;25.23;23.73;;;17.50;40.70;;;;;;5067591;28;20429;-74
2023/05/22 04:08:05;;;;;;;23.93;22.53;;;17.50;40.80;;;;;;5068936;28;20414;-75
2023/05/22 04:10:32;;;;;;;24.17;22.73;;;17.50;41.00;;;;;;5069943;28;20441;-75
2023/05/22 04:12:58;;;;;;;23.30;22.00;;;17.50;41.20;;;;;;5050497;28;20472;-74
2023/05/22 04:15:24;;;;;;;25.30;23.80;;;17.50;41.10;;;;;;5070356;28;20190;-74
2023/05/22 04:17:49;;;;;;;24.90;23.33;;;17.50;41.20;;;;;;5051436;28;20786;-74
2023/05/22 04:20:15;;;;;;;23.27;21.87;;;17.50;41.00;;;;;;5067589;28;20254;-74
2023/05/22 04:22:40;;;;;;;25.73;24.23;;;17.50;41.20;;;;;;5070016;28;20699;-74
2023/05/22 04:25:06;;;;;;;24.83;23.23;;;17.50;41.10;;;;;;5070559;28;20195;-73
2023/05/22 04:27:33;;;;;;;26.07;24.10;;;17.50;41.20;;;;;;5053302;28;20687;-73
2023/05/22 04:30:01;;;;;;;23.80;22.20;;;17.60;41.10;;;;;;5069914;28;20258;-74
2023/05/22 04:32:28;;;;;;;23.23;21.83;;;17.60;41.10;;;;;;5071614;28;20453;-74
2023/05/22 04:34:57;;;;;;;25.30;23.70;;;17.60;41.10;;;;;;5071666;28;20426;-74
2023/05/22 04:37:23;;;;;;;24.40;23.00;;;17.60;41.10;;;;;;5072106;28;20414;-74
2023/05/22 04:39:52;;;;;;;27.27;25.47;;;17.60;40.90;;;;;;5072287;28;20978;-74
2023/05/22 04:42:18;;;;;;;25.30;23.70;;;17.60;40.80;;;;;;5073388;28;20420;-74
2023/05/22 04:44:43;;;;;;;25.03;23.37;;;17.60;40.60;;;;;;5072579;28;20954;-74
2023/05/22 04:47:13;;;;;;;25.60;23.67;;;17.60;40.70;;;;;;5052506;28;20172;-74
2023/05/22 04:49:41;;;;;;;25.33;23.70;;;17.60;40.80;;;;;;5053632;28;20179;-74
2023/05/22 04:52:06;;;;;;;25.30;23.80;;;17.60;40.80;;;;;;5050318;28;20698;-73
2023/05/22 04:54:33;;;;;;;25.27;23.43;;;17.60;40.70;;;;;;5071549;28;20966;-73
2023/05/22 04:56:59;;;;;;;24.63;22.90;;;17.60;40.90;;;;;;5073353;28;20167;-72
2023/05/22 04:59:25;;;;;;;26.20;24.60;;;17.70;40.80;;;;;;5065739;28;20493;-74
2023/05/22 05:01:51;;;;;;;26.03;24.23;;;17.60;41.10;;;;;;5053017;28;20441;-73
2023/05/22 05:04:16;;;;;;;25.33;23.50;;;17.70;41.40;;;;;;5071543;28;20456;-73
2023/05/22 05:06:42;;;;;;;25.20;23.63;;;17.70;41.40;;;;;;5071487;28;20409;-73
2023/05/22 05:09:09;;;;;;;25.83;24.30;;;17.70;41.40;;;;;;5073472;28;20231;-76
2023/05/22 05:11:34;;;;;;;25.20;23.70;;;17.70;41.50;;;;;;5054102;28;20178;-73
2023/05/22 05:14:00;;;;;;;26.83;24.93;;;17.60;41.40;;;;;;5071919;28;20461;-74
2023/05/22 05:16:26;;;;;;;25.50;23.90;;;17.60;42.00;;;;;;5072322;28;20569;-75
2023/05/22 05:18:52;;;;;;;25.27;23.57;;;17.60;42.10;;;;;;5073132;28;20179;-74
2023/05/22 05:21:19;;;;;;;26.10;24.40;;;17.60;42.30;;;;;;5071582;28;20652;-71
2023/05/22 05:23:44;;;;;;;25.50;23.80;;;17.60;42.20;;;;;;5072069;28;20463;-74
2023/05/22 05:26:10;;;;;;;25.43;23.53;;;17.70;42.20;;;;;;5072384;28;20410;-75
2023/05/22 05:28:36;;;;;;;26.80;25.00;;;17.70;42.20;;;;;;5072722;28;20175;-75
2023/05/22 05:31:01;;;;;;;26.57;24.57;;;17.80;42.30;;;;;;5071236;28;20187;-74
2023/05/22 05:33:27;;;;;;;24.83;23.37;;;17.80;42.10;;;;;;5071593;28;20453;-73
2023/05/22 05:35:53;;;;;;;24.60;23.00;;;17.80;41.90;;;;;;5072215;28;20248;-73
2023/05/22 05:38:18;;;;;;;25.60;24.00;;;17.90;41.80;;;;;;5072282;28;20203;-75
2023/05/22 05:40:44;;;;;;;25.00;23.13;;;17.80;41.30;;;;;;5071907;28;20196;-74
2023/05/22 05:43:12;;;;;;;25.07;23.27;;;17.80;41.40;;;;;;5070625;28;20176;-72
2023/05/22 05:45:38;;;;;;;26.37;24.70;;;17.90;41.50;;;;;;5072315;28;20421;-74
2023/05/22 05:48:04;;;;;;;30.70;28.60;;;17.90;41.20;;;;;;5075413;28;20408;-74
2023/05/22 05:50:29;;;;;;;25.57;23.87;;;17.90;41.10;;;;;;5076119;28;20191;-73
2023/05/22 05:52:55;;;;;;;24.60;23.10;;;17.90;40.60;;;;;;5056392;28;20199;-72
2023/05/22 05:55:20;;;;;;;27.07;25.17;;;18.00;40.70;;;;;;5074384;28;20214;-74
2023/05/22 05:57:46;;;;;;;25.97;24.37;;;18.00;40.40;;;;;;5076408;28;20615;-74
2023/05/22 06:00:12;;;;;;;25.27;23.67;;;18.00;40.30;;;;;;5071900;28;20237;-73
2023/05/22 06:02:37;;;;;;;25.80;24.10;;;18.00;40.10;;;;;;5055920;28;20203;-74
2023/05/22 06:05:04;;;;;;;26.50;24.40;;;18.10;40.30;;;;;;5075442;28;20422;-74
2023/05/22 06:07:30;;;;;;;24.97;23.27;;;18.10;40.40;;;;;;5075921;28;20175;-74
2023/05/22 06:09:57;;;;;;;24.60;22.83;;;18.20;40.40;;;;;;5075196;28;20410;-72
2023/05/22 06:12:23;;;;;;;24.63;22.90;;;18.20;40.30;;;;;;5071388;28;20464;-74
2023/05/22 06:14:48;;;;;;;23.80;22.30;;;18.30;40.30;;;;;;5074235;28;20936;-72
2023/05/22 06:17:15;;;;;;;25.50;23.60;;;18.30;40.00;;;;;;5075296;28;20178;-73
2023/05/22 06:19:41;;;;;;;26.23;24.30;;;18.40;39.80;;;;;;5073764;28;20805;-73
2023/05/22 06:22:06;;;;;;;27.20;24.90;;;18.40;39.70;;;;;;5082906;28;20954;-73
2023/05/22 06:24:32;;;;;;;26.13;24.30;;;18.40;40.20;;;;;;5083503;28;20474;-74
2023/05/22 06:26:58;;;;;;;25.80;23.90;;;18.50;39.50;;;;;;5081090;28;20194;-74
2023/05/22 06:29:24;;;;;;;27.83;25.50;;;18.50;39.70;;;;;;5075657;28;20477;-74
2023/05/22 06:31:49;;;;;;;26.17;24.27;;;18.50;39.00;;;;;;5074048;28;20492;-74
2023/05/22 06:34:15;;;;;;;26.23;24.17;;;18.50;39.00;;;;;;5073396;28;20194;-72
2023/05/22 06:36:41;;;;;;;26.70;24.80;;;18.60;39.20;;;;;;5057363;28;20182;-74
2023/05/22 06:39:07;;;;;;;25.70;23.77;;;18.60;39.10;;;;;;5073286;28;20178;-74
2023/05/22 06:41:34;;;;;;;26.00;23.90;;;18.70;39.20;;;;;;5071230;28;20405;-74
2023/05/22 06:44:01;;;;;;;25.40;23.50;;;18.70;39.40;;;;;;5074495;28;20780;-73
2023/05/22 06:46:26;;;;;;;28.27;25.67;;;18.70;39.30;;;;;;5073967;28;20421;-74
2023/05/22 06:48:53;;;;;;;23.60;22.00;;;18.80;39.20;;;;;;5056178;28;20418;-73
2023/05/22 06:51:19;;;;;;;26.43;24.23;;;18.80;38.90;;;;;;5073092;28;20186;-74
2023/05/22 06:53:45;;;;;;;25.63;23.77;;;18.90;38.20;;;;;;5074374;28;20468;-76
2023/05/22 06:56:10;;;;;;;25.17;23.27;;;19.00;37.90;;;;;;5073230;28;20410;-73
2023/05/22 06:58:36;;;;;;;25.27;23.47;;;19.00;37.80;;;;;;5074211;28;20172;-73
2023/05/22 07:01:01;;;;;;;25.60;23.70;;;19.00;37.80;;;;;;5072463;28;20548;-74
2023/05/22 07:03:27;;;;;;;25.33;23.33;;;19.00;37.90;;;;;;5056858;28;20556;-74
2023/05/22 07:05:55;;;;;;;25.33;23.63;;;19.10;37.50;;;;;;5072867;28;20175;-74
2023/05/22 07:08:21;;;;;;;25.77;24.03;;;19.10;37.40;;;;;;5053667;28;20179;-73
2023/05/22 07:10:46;;;;;;;26.20;24.30;;;19.20;37.40;;;;;;5053747;28;20441;-72
2023/05/22 07:13:12;;;;;;;24.40;22.80;;;19.20;37.30;;;;;;5065190;28;20471;-73
2023/05/22 07:15:38;;;;;;;24.73;22.67;;;19.30;37.50;;;;;;5073360;28;20568;-74
2023/05/22 07:18:03;;;;;;;19.63;18.07;;;19.30;37.70;;;;;;5072532;28;20180;-76
2023/05/22 07:20:29;;;;;;;26.97;25.07;;;19.30;37.60;;;;;;5073143;28;20175;-76
2023/05/22 07:22:54;;;;;;;23.37;21.80;;;19.30;37.00;;;;;;5072296;28;20232;-75
2023/05/22 07:25:20;;;;;;;23.27;21.80;;;19.30;37.20;;;;;;5072631;28;20199;-76
2023/05/22 07:27:45;;;;;;;24.60;22.87;;;19.40;37.50;;;;;;5071816;28;20657;-76
2023/05/22 07:30:11;;;;;;;24.67;23.07;;;19.40;37.00;;;;;;5073024;28;20260;-76
2023/05/22 07:32:37;;;;;;;23.57;21.67;;;19.40;37.30;;;;;;5055360;28;20672;-76
2023/05/22 07:35:03;;;;;;;26.37;24.00;;;19.40;37.60;;;;;;5073775;28;20442;-75
2023/05/22 07:37:30;;;;;;;23.83;21.90;;;19.60;36.50;;;;;;5073100;28;20214;-76
2023/05/22 07:39:56;;;;;;;25.30;23.50;;;19.60;36.60;;;;;;5054224;28;20511;-76
2023/05/22 07:42:22;;;;;;;22.03;20.13;;;19.70;35.90;;;;;;5072180;28;20456;-76
2023/05/22 07:44:47;;;;;;;21.47;19.60;;;19.80;36.10;;;;;;5073455;28;20210;-77
2023/05/22 07:47:13;;;;;;;21.43;19.83;;;19.80;36.00;;;;;;5055327;28;20426;-75
2023/05/22 07:49:39;;;;;;;24.00;22.20;;;19.80;36.20;;;;;;5054932;28;20196;-76
2023/05/22 07:52:05;;;;;;;22.27;20.50;;;19.90;35.60;;;;;;5072830;28;20662;-76
2023/05/22 07:54:30;;;;;;;22.83;21.23;;;20.10;35.20;;;;;;5073217;28;20452;-76
2023/05/22 07:56:56;;;;;;;20.57;18.97;;;20.20;35.00;;;;;;5072565;28;20183;-76
2023/05/22 07:59:23;;;;;;;23.50;22.00;;;20.20;34.50;;;;;;5054623;28;20586;-74
2023/05/22 08:01:49;;;;;;;19.63;18.13;;;20.30;34.40;;;;;;5072005;28;20566;-75
2023/05/22 08:04:14;;;;;;;19.43;18.03;;;20.40;34.30;;;;;;5072439;28;20451;-75
2023/05/22 08:06:42;;;;;;;21.23;19.53;;;20.40;34.50;;;;;;5071689;28;20908;-75
2023/05/22 08:09:08;;;;;;;22.00;20.27;;;20.40;34.90;;;;;;5072226;28;20171;-74
2023/05/22 08:11:36;;;;;;;19.87;18.27;;;20.40;34.90;;;;;;5054832;28;20432;-75
2023/05/22 08:14:02;;;;;;;21.33;19.60;;;20.40;34.80;;;;;;5073085;28;20297;-74
2023/05/22 08:16:27;;;;;;;19.60;18.30;;;20.40;35.30;;;;;;5073051;28;20449;-75
2023/05/22 08:18:53;;;;;;;21.10;19.30;;;20.40;35.20;;;;;;5072468;28;20251;-74
2023/05/22 08:21:18;;;;;;;19.23;17.80;;;20.50;34.40;;;;;;5054316;28;20225;-74
2023/05/22 08:23:44;;;;;;;18.77;17.47;;;20.50;34.50;;;;;;5072838;28;20183;-74
2023/05/22 08:26:09;;;;;;;22.20;19.90;;;20.60;35.00;;;;;;5072968;28;20192;-74
2023/05/22 08:28:36;;;;;;;20.80;19.20;;;20.60;34.70;;;;;;5072931;28;20258;-75
2023/05/22 08:31:02;;;;;;;22.23;20.73;;;20.70;34.10;;;;;;5054967;28;20609;-75
2023/05/22 08:33:27;;;;;;;19.23;17.93;;;20.90;32.80;;;;;;5072206;28;20465;-74
2023/05/22 08:35:53;;;;;;;20.13;18.73;;;20.90;32.40;;;;;;5054821;28;20418;-75
2023/05/22 08:38:18;;;;;;;18.37;17.07;;;21.00;31.50;;;;;;5070919;28;20674;-73
2023/05/22 08:40:48;;;;;;;19.80;18.30;;;21.10;30.30;;;;;;5072675;28;20183;-74
2023/05/22 08:43:14;;;;;;;20.40;18.90;;;21.30;29.80;;;;;;5071985;28;20680;-75
2023/05/22 08:45:41;;;;;;;19.57;18.17;;;21.40;29.60;;;;;;5072745;28;20421;-74
2023/05/22 08:48:11;;;;;;;18.60;17.40;;;21.40;29.90;;;;;;5071794;28;20448;-75
2023/05/22 08:50:42;;;;;;;19.50;18.20;;;21.50;30.20;;;;;;5071548;28;20429;-74
2023/05/22 08:53:10;;;;;;;18.83;17.50;;;21.50;30.70;;;;;;5071402;28;20461;-75
2023/05/22 08:55:36;;;;;;;20.57;18.77;;;21.60;31.20;;;;;;5053535;28;20458;-74
2023/05/22 08:58:03;;;;;;;19.10;17.60;;;21.80;29.80;;;;;;5073234;28;20420;-75
2023/05/22 09:00:29;;;;;;;44.10;21.97;;;22.00;29.60;;;;;;5072874;28;20417;-75
2023/05/22 09:02:55;;;;;;;20.50;18.70;;;22.10;29.50;;;;;;5054366;28;20443;-75
2023/05/22 09:05:25;;;;;;;18.77;17.17;;;22.30;29.10;;;;;;5072284;28;20492;-75
2023/05/22 09:07:52;;;;;;;18.57;17.10;;;22.30;29.60;;;;;;5073227;28;20421;-75
2023/05/22 09:10:18;;;;;;;18.90;17.30;;;22.40;29.40;;;;;;5073667;28;20935;-74
2023/05/22 09:13:03;;;;;;;19.90;18.30;;;22.50;29.20;;;;;;5072099;28;20470;-75
2023/05/22 09:15:30;;;;;;;19.47;18.17;;;22.50;29.20;;;;;;5072782;28;20506;-74
2023/05/22 09:17:56;;;;;;;17.77;16.57;;;22.60;28.90;;;;;;5054267;28;20413;-73
2023/05/22 09:20:21;;;;;;;21.10;19.40;;;22.70;28.40;;;;;;5072719;28;20402;-74
2023/05/22 09:22:47;;;;;;;19.43;17.93;;;22.90;28.10;;;;;;5073903;28;20586;-74
2023/05/22 09:25:18;;;;;;;20.03;18.40;;;22.90;27.80;;;;;;5076802;28;20187;-74
2023/05/22 09:27:49;;;;;;;19.70;18.07;;;23.00;27.40;;;;;;5077442;28;20167;-73
2023/05/22 09:30:18;;;;;;;16.77;15.70;;;22.90;25.70;;;;;;5080525;28;20466;-73
2023/05/22 09:32:47;;;;;;;19.20;17.47;;;23.00;25.80;;;;;;5058512;28;20461;-73
2023/05/22 09:35:13;;;;;;;18.20;16.90;;;23.00;25.80;;;;;;5059833;28;20896;-74
2023/05/22 09:37:39;;;;;;;19.10;17.43;;;22.90;26.30;;;;;;5076282;28;20507;-74
2023/05/22 09:40:07;;;;;;;17.73;16.33;;;22.80;26.30;;;;;;5067999;28;20414;-73
2023/05/22 09:42:33;;;;;;;18.73;17.23;;;22.70;27.20;;;;;;5056274;28;20410;-74
2023/05/22 09:45:06;;;;;;;18.40;17.20;;;22.60;26.70;;;;;;5057426;28;20476;-74
2023/05/22 09:47:33;;;;;;;18.53;17.40;;;22.60;27.10;;;;;;5057188;28;20410;-74
2023/05/22 09:50:00;;;;;;;18.33;17.00;;;22.50;27.70;;;;;;5055467;28;20625;-74
2023/05/22 09:52:27;;;;;;;20.07;18.47;;;22.50;27.80;;;;;;5055881;28;20462;-73
2023/05/22 09:54:55;;;;;;;19.87;18.43;;;22.50;28.10;;;;;;5056653;28;20418;-73
2023/05/22 09:57:27;;;;;;;19.77;18.43;;;22.40;28.30;;;;;;5056515;28;20407;-73
2023/05/22 09:59:56;;;;;;;19.23;17.73;;;22.40;28.60;;;;;;5056506;28;20789;-75
2023/05/22 10:02:24;;;;;;;19.87;18.27;;;22.40;28.30;;;;;;5055385;28;20785;-72
2023/05/22 10:04:50;;;;;;;18.80;17.47;;;22.40;28.20;;;;;;5055027;28;20465;-73
2023/05/22 10:07:21;;;;;;;20.13;18.60;;;22.50;28.20;;;;;;5056239;28;20454;-74
2023/05/22 10:10:06;;;;;;;18.63;17.33;;;22.70;28.20;;;;;;5056063;28;20421;-74
2023/05/22 10:12:36;;;;;;;20.50;19.00;;;22.90;28.20;;;;;;5055423;28;20468;-73
2023/05/22 10:15:02;;;;;;;19.47;18.07;;;22.90;28.00;;;;;;5055860;28;20825;-74
2023/05/22 10:17:28;;;;;;;20.10;18.70;;;22.90;27.60;;;;;;5055886;28;20414;-74
2023/05/22 10:19:56;;;;;;;19.20;18.00;;;22.80;27.90;;;;;;5055530;28;20459;-73
2023/05/22 10:22:24;;;;;;;20.33;18.80;;;22.90;27.80;;;;;;5055178;28;20438;-74
2023/05/22 10:24:51;;;;;;;19.90;18.30;;;23.00;27.90;;;;;;5055812;28;21020;-73
2023/05/22 10:27:17;;;;;;;20.07;18.50;;;23.00;27.60;;;;;;5055751;28;20415;-74
2023/05/22 10:30:18;;;;;;;18.80;17.47;;;23.00;26.50;;;;;;5037727;28;20991;-73
2023/05/22 10:32:53;;;;;;;18.57;17.27;;;23.10;26.90;;;;;;5054557;28;20296;-74
2023/05/22 10:35:27;;;;;;;18.70;17.30;;;23.10;26.70;;;;;;5054354;28;20430;-74
2023/05/22 10:37:55;;;;;;;19.77;18.47;;;23.30;26.70;;;;;;5055833;28;20406;-74
2023/05/22 10:40:27;;;;;;;19.97;18.40;;;23.40;26.70;;;;;;5059507;28;20897;-75
2023/05/22 10:42:59;;;;;;;19.50;17.90;;;23.50;26.10;;;;;;5056593;28;20419;-76
2023/05/22 10:45:29;;;;;;;19.07;17.87;;;23.80;25.10;;;;;;5055560;28;20462;-76
2023/05/22 10:48:05;;;;;;;18.00;16.80;;;23.90;24.40;;;;;;5057475;28;20402;-74
2023/05/22 10:50:30;;;;;;;17.73;16.43;;;23.90;24.40;;;;;;5062934;28;20420;-75
2023/05/22 10:53:20;;;;;;;19.07;17.67;;;24.00;24.40;;;;;;5055626;28;20457;-76
2023/05/22 10:55:52;;;;;;;18.13;17.00;;;24.00;24.40;;;;;;5073513;28;20244;-75
2023/05/22 10:58:26;;;;;;;18.57;17.27;;;24.10;23.80;;;;;;5075460;28;20423;-76
2023/05/22 11:01:16;;;;;;;19.17;17.87;;;24.10;24.50;;;;;;5057318;28;20422;-76
2023/05/22 11:04:07;;;;;;;17.40;16.20;;;24.30;24.00;;;;;;5075198;28;20928;-76
2023/05/22 11:06:42;;;;;;;19.60;18.40;;;24.30;24.40;;;;;;5049084;28;20421;-76
2023/05/22 11:09:30;;;;;;;20.17;18.87;;;24.30;24.60;;;;;;5057462;28;20428;-75
2023/05/22 11:12:24;;;;;;;19.37;17.97;;;24.30;24.60;;;;;;5074772;28;20786;-75
2023/05/22 11:14:57;;;;;;;19.70;18.23;;;24.30;24.60;;;;;;5075264;28;20422;-75
2023/05/22 11:17:25;;;;;;;19.03;17.63;;;24.30;24.20;;;;;;5075175;28;20409;-76
2023/05/22 11:19:59;;;;;;;18.67;17.50;;;24.20;24.40;;;;;;5056624;28;20440;-76
2023/05/22 11:22:42;;;;;;;19.10;17.97;;;24.20;24.30;;;;;;5073587;28;20433;-75
2023/05/22 11:25:18;;;;;;;19.07;17.90;;;24.20;24.60;;;;;;5074701;28;20433;-75
2023/05/22 11:27:46;;;;;;;18.40;17.20;;;24.20;24.60;;;;;;5056542;28;20409;-74
2023/05/22 11:30:12;;;;;;;19.60;18.23;;;24.20;25.20;;;;;;5074155;28;20406;-76
2023/05/22 11:32:39;;;;;;;19.13;18.03;;;24.10;25.10;;;;;;5055966;28;20461;-76
2023/05/22 11:35:06;;;;;;;19.70;18.40;;;24.10;24.50;;;;;;5074335;28;20433;-76
2023/05/22 11:37:32;;;;;;;21.30;19.83;;;24.10;24.50;;;;;;5074373;28;20410;-75
2023/05/22 11:40:03;;;;;;;20.30;18.60;;;24.10;24.00;;;;;;5074283;28;20410;-76
2023/05/22 11:42:28;;;;;;;19.03;17.60;;;24.20;23.90;;;;;;5074162;28;20406;-75
2023/05/22 11:44:55;;;;;;;18.50;16.90;;;24.10;23.50;;;;;;5075704;28;20436;-76
2023/05/22 11:47:21;;;;;;;19.67;18.53;;;24.10;23.20;;;;;;5074863;28;20172;-76
2023/05/22 11:49:46;;;;;;;18.30;16.90;;;24.00;22.60;;;;;;5073745;28;20420;-76
2023/05/22 11:52:12;;;;;;;19.27;17.97;;;24.00;22.30;;;;;;5073008;28;20178;-76
2023/05/22 11:54:38;;;;;;;18.87;17.70;;;24.10;21.90;;;;;;5074200;28;20556;-76
2023/05/22 11:57:07;;;;;;;18.60;17.40;;;24.10;21.90;;;;;;5056319;28;20176;-76
2023/05/22 11:59:33;;;;;;;18.23;17.13;;;24.10;21.60;;;;;;5074435;28;20181;-75
2023/05/22 12:01:59;;;;;;;16.97;15.70;;;24.10;21.80;;;;;;5073703;28;20495;-76
2023/05/22 12:04:25;;;;;;;17.40;16.10;;;24.10;22.30;;;;;;5073844;28;20434;-76
2023/05/22 12:06:51;;;;;;;18.30;17.17;;;24.10;22.10;;;;;;5074124;28;20561;-76
2023/05/22 12:09:17;;;;;;;19.53;18.13;;;24.10;21.90;;;;;;5056193;28;20171;-76
2023/05/22 12:11:46;;;;;;;19.63;18.33;;;24.20;21.40;;;;;;5073404;28;20926;-75
2023/05/22 12:14:12;;;;;;;18.37;17.03;;;24.40;22.60;;;;;;5073421;28;20252;-75
2023/05/22 12:16:38;;;;;;;17.97;16.97;;;24.40;22.80;;;;;;5055841;28;20481;-76
2023/05/22 12:19:08;;;;;;;19.00;17.80;;;24.40;22.40;;;;;;5073972;28;20869;-76
2023/05/22 12:21:35;;;;;;;20.37;18.10;;;24.30;22.70;;;;;;5055287;28;20633;-77
2023/05/22 12:24:05;;;;;;;21.23;19.40;;;24.30;22.50;;;;;;5056163;28;20441;-76
2023/05/22 12:26:35;;;;;;;19.80;18.13;;;24.30;22.70;;;;;;5073127;28;20497;-74
2023/05/22 12:29:01;;;;;;;19.13;17.67;;;24.30;22.70;;;;;;5073337;28;20412;-76
2023/05/22 12:31:27;;;;;;;18.63;17.43;;;24.20;24.00;;;;;;5072682;28;20504;-75